Time;durP1;ratioP1;P1;durP2;ratioP2;P2;SDS_P1;SDS_P2;PMS_P1;PMS_P2;Temp;Humidity;BMP_temperature;BMP_pressure;BME280_temperature;BME280_humidity;BME280_pressure;Samples;Min_cycle;Max_cycle;Signal;HPM_P1;HPM_P2
2022/11/24 00:01:00;;;;;;;6.43;1.70;;;9.80;99.90;;;;;;7390893;19;20197;-76
2022/11/24 00:03:26;;;;;;;5.50;1.60;;;9.80;99.90;;;;;;7390728;19;20134;-76
2022/11/24 00:05:51;;;;;;;3.80;1.00;;;9.80;99.90;;;;;;7390447;19;20263;-75
2022/11/24 00:08:17;;;;;;;6.83;1.50;;;9.80;99.90;;;;;;7392459;19;20141;-75
2022/11/24 00:10:43;;;;;;;6.53;2.17;;;9.70;99.90;;;;;;7391046;19;20159;-76
2022/11/24 00:13:09;;;;;;;4.30;1.63;;;9.80;99.90;;;;;;7390845;19;20131;-75
2022/11/24 00:15:34;;;;;;;6.53;1.70;;;9.80;99.90;;;;;;7392135;19;20134;-75
2022/11/24 00:18:00;;;;;;;7.60;1.60;;;9.80;99.90;;;;;;7395471;19;20131;-76
2022/11/24 00:20:26;;;;;;;3.93;1.60;;;9.90;99.90;;;;;;7400903;19;20241;-75
2022/11/24 00:22:51;;;;;;;5.77;1.77;;;9.70;99.90;;;;;;7398590;19;20613;-75
2022/11/24 00:25:17;;;;;;;6.63;2.07;;;9.70;99.90;;;;;;7397634;19;20138;-76
2022/11/24 00:27:43;;;;;;;6.53;2.07;;;9.70;99.90;;;;;;7399157;19;20134;-75
2022/11/24 00:30:09;;;;;;;5.53;1.33;;;9.60;99.90;;;;;;7399678;19;20135;-76
2022/11/24 00:32:35;;;;;;;7.40;2.00;;;9.50;99.90;;;;;;7398422;19;20139;-75
2022/11/24 00:35:00;;;;;;;6.03;1.40;;;9.20;99.90;;;;;;7397099;19;20143;-75
2022/11/24 00:37:26;;;;;;;7.13;1.43;;;9.30;99.90;;;;;;7399929;19;20134;-76
2022/11/24 00:39:52;;;;;;;6.93;1.60;;;9.50;99.90;;;;;;7398639;19;20163;-77
2022/11/24 00:42:17;;;;;;;6.77;1.47;;;9.60;99.90;;;;;;7396987;19;20142;-76
2022/11/24 00:44:43;;;;;;;7.97;1.80;;;9.70;99.90;;;;;;7396928;19;20163;-77
2022/11/24 00:47:09;;;;;;;10.33;1.60;;;9.80;99.90;;;;;;7396616;19;20203;-75
2022/11/24 00:49:35;;;;;;;4.70;1.40;;;10.00;99.90;;;;;;7396483;19;20134;-75
2022/11/24 00:52:00;;;;;;;6.70;1.63;;;9.90;99.90;;;;;;7397193;19;20145;-75
2022/11/24 00:54:26;;;;;;;5.47;1.47;;;9.90;99.90;;;;;;7397578;19;20584;-74
2022/11/24 00:56:52;;;;;;;4.13;1.60;;;9.90;99.90;;;;;;7395453;19;20330;-76
2022/11/24 00:59:18;;;;;;;4.23;1.37;;;9.90;99.90;;;;;;7395628;19;20869;-76
2022/11/24 01:01:43;;;;;;;9.47;1.70;;;9.80;99.90;;;;;;7396347;19;20126;-76
2022/11/24 01:04:09;;;;;;;6.50;1.43;;;9.90;99.90;;;;;;7395589;19;20138;-76
2022/11/24 01:06:35;;;;;;;8.40;1.60;;;9.90;99.90;;;;;;7396542;19;20537;-75
2022/11/24 01:09:01;;;;;;;6.70;1.90;;;9.90;99.90;;;;;;7397272;19;20143;-75
2022/11/24 01:12:00;;;;;;;5.43;1.53;;;9.60;99.90;;;;;;7395082;19;20238;-76
2022/11/24 01:14:19;;;;;;;6.93;1.80;;;9.60;99.90;;;;;;7397710;19;20139;-75
2022/11/24 01:16:45;;;;;;;16.33;1.83;;;9.60;99.90;;;;;;7397992;19;20580;-76
2022/11/24 01:19:11;;;;;;;3.47;1.47;;;9.70;99.90;;;;;;7397533;19;20146;-75
2022/11/24 01:21:36;;;;;;;5.17;1.57;;;9.80;99.90;;;;;;7398243;19;20127;-75
2022/11/24 01:24:02;;;;;;;3.50;1.27;;;9.80;99.90;;;;;;7397997;19;20179;-75
2022/11/24 01:26:28;;;;;;;5.90;1.70;;;9.60;99.90;;;;;;7395845;19;20155;-76
2022/11/24 01:28:55;;;;;;;4.03;1.40;;;9.70;99.90;;;;;;7395055;19;20909;-74
2022/11/24 01:31:22;;;;;;;9.03;1.60;;;9.70;99.90;;;;;;7399185;19;20143;-76
2022/11/24 01:33:47;;;;;;;9.20;1.90;;;9.80;99.90;;;;;;7394062;19;20127;-75
2022/11/24 01:36:13;;;;;;;13.90;2.00;;;9.70;99.90;;;;;;7396177;19;20597;-75
2022/11/24 01:38:39;;;;;;;9.80;1.30;;;9.60;99.90;;;;;;7396991;19;20607;-76
2022/11/24 01:41:14;;;;;;;5.67;1.70;;;9.60;99.90;;;;;;7397830;19;20453;-75
2022/11/24 01:43:41;;;;;;;3.97;1.67;;;9.70;99.90;;;;;;7397267;19;20139;-76
2022/11/24 01:46:14;;;;;;;8.60;1.50;;;9.80;99.90;;;;;;7395712;19;20151;-75
2022/11/24 01:48:45;;;;;;;6.93;1.47;;;9.80;99.90;;;;;;7394717;19;20548;-75
2022/11/24 01:51:18;;;;;;;6.33;1.57;;;9.90;99.90;;;;;;7394665;19;20146;-76
2022/11/24 01:53:53;;;;;;;4.77;1.27;;;9.80;99.90;;;;;;7394036;19;20739;-75
2022/11/24 01:56:19;;;;;;;6.07;1.37;;;9.80;99.90;;;;;;7397341;19;20134;-75
2022/11/24 01:58:54;;;;;;;6.27;1.73;;;9.60;99.90;;;;;;7396093;19;20155;-76
2022/11/24 02:01:20;;;;;;;6.80;1.47;;;9.70;99.90;;;;;;7395088;19;20628;-76
2022/11/24 02:03:47;;;;;;;7.80;1.70;;;9.80;99.90;;;;;;7396192;19;20134;-76
2022/11/24 02:06:22;;;;;;;4.40;1.60;;;9.90;99.90;;;;;;7395328;19;20163;-76
2022/11/24 02:08:56;;;;;;;3.47;1.70;;;9.80;99.90;;;;;;7395568;19;20591;-76
2022/11/24 02:11:29;;;;;;;3.30;1.10;;;9.80;99.90;;;;;;7393799;19;20130;-76
2022/11/24 02:13:55;;;;;;;7.30;1.37;;;9.80;99.90;;;;;;7392104;19;20150;-76
2022/11/24 02:16:21;;;;;;;3.70;1.20;;;9.90;99.90;;;;;;7397105;19;20584;-76
2022/11/24 02:18:50;;;;;;;4.40;1.27;;;9.80;99.90;;;;;;7395272;19;20134;-77
2022/11/24 02:21:16;;;;;;;5.37;1.70;;;9.80;99.90;;;;;;7394565;19;20447;-77
2022/11/24 02:24:10;;;;;;;5.50;1.47;;;9.80;99.90;;;;;;7393230;19;20537;-76
2022/11/24 02:26:41;;;;;;;4.87;1.60;;;9.80;99.90;;;;;;7390060;19;20154;-76
2022/11/24 02:29:09;;;;;;;5.00;1.27;;;9.90;99.90;;;;;;7393983;19;20138;-77
2022/11/24 02:31:35;;;;;;;5.10;1.10;;;9.90;99.90;;;;;;7395814;19;20135;-76
2022/11/24 02:34:01;;;;;;;5.27;1.10;;;9.80;99.90;;;;;;7391066;19;20131;-77
2022/11/24 02:36:26;;;;;;;4.27;1.20;;;9.80;99.90;;;;;;7395238;19;20146;-75
2022/11/24 02:38:52;;;;;;;7.07;1.30;;;9.90;99.90;;;;;;7392578;19;20127;-75
2022/11/24 02:41:21;;;;;;;5.20;1.20;;;10.00;99.90;;;;;;7394185;19;20573;-76
2022/11/24 02:43:57;;;;;;;3.67;1.20;;;10.00;99.90;;;;;;7393514;19;20130;-76
2022/11/24 02:46:23;;;;;;;2.07;1.13;;;10.00;99.90;;;;;;7394634;19;20146;-76
2022/11/24 02:48:49;;;;;;;6.00;1.47;;;9.90;99.90;;;;;;7393375;19;20127;-76
2022/11/24 02:51:15;;;;;;;7.03;1.20;;;9.90;99.90;;;;;;7396215;19;20135;-76
2022/11/24 02:53:41;;;;;;;7.80;1.40;;;9.90;99.90;;;;;;7391463;19;20585;-76
2022/11/24 02:56:06;;;;;;;4.70;1.43;;;10.00;99.90;;;;;;7395244;19;20129;-76
2022/11/24 02:58:32;;;;;;;3.17;0.90;;;9.90;99.90;;;;;;7392861;19;20172;-76
2022/11/24 03:00:58;;;;;;;3.73;1.10;;;9.90;99.90;;;;;;7394039;19;20167;-76
2022/11/24 03:03:25;;;;;;;3.93;1.10;;;9.90;99.90;;;;;;7392444;19;20143;-77
2022/11/24 03:05:52;;;;;;;4.87;1.80;;;9.70;99.90;;;;;;7394359;19;20139;-77
2022/11/24 03:08:18;;;;;;;2.07;1.00;;;9.60;99.90;;;;;;7393592;19;20159;-76
2022/11/24 03:10:44;;;;;;;6.93;1.10;;;9.70;99.90;;;;;;7392515;19;20139;-76
2022/11/24 03:13:09;;;;;;;3.00;1.10;;;9.60;99.90;;;;;;7393840;19;20130;-76
2022/11/24 03:15:35;;;;;;;3.53;1.10;;;9.50;99.90;;;;;;7391926;19;20135;-76
2022/11/24 03:18:02;;;;;;;4.43;1.10;;;9.70;99.90;;;;;;7393556;19;20134;-76
2022/11/24 03:20:28;;;;;;;2.40;0.83;;;9.70;99.90;;;;;;7394891;19;20181;-76
2022/11/24 03:22:53;;;;;;;4.73;1.27;;;9.80;99.90;;;;;;7392724;19;20123;-76
2022/11/24 03:25:19;;;;;;;2.20;1.10;;;9.80;99.90;;;;;;7392117;19;20504;-76
2022/11/24 03:27:46;;;;;;;4.57;1.23;;;9.80;99.90;;;;;;7392318;19;20153;-76
2022/11/24 03:30:12;;;;;;;2.10;1.00;;;9.60;99.90;;;;;;7395809;19;20466;-76
2022/11/24 03:32:38;;;;;;;3.03;1.20;;;9.60;99.90;;;;;;7391823;19;20134;-76
2022/11/24 03:35:05;;;;;;;6.53;1.57;;;9.60;99.90;;;;;;7393800;19;20443;-76
2022/11/24 03:37:30;;;;;;;4.30;1.70;;;9.60;99.90;;;;;;7394371;19;20607;-76
2022/11/24 03:39:56;;;;;;;2.43;1.20;;;9.70;99.90;;;;;;7392854;19;20131;-75
2022/11/24 03:42:22;;;;;;;6.03;1.13;;;9.70;99.90;;;;;;7392111;19;20173;-76
2022/11/24 03:44:47;;;;;;;4.60;1.50;;;9.60;99.90;;;;;;7390895;19;20179;-76
2022/11/24 03:47:13;;;;;;;3.50;0.80;;;9.70;99.90;;;;;;7390927;19;20137;-76
2022/11/24 03:49:40;;;;;;;5.33;1.37;;;9.80;99.90;;;;;;7390436;19;20137;-76
2022/11/24 03:52:06;;;;;;;4.07;1.03;;;9.70;99.90;;;;;;7390001;19;20138;-76
2022/11/24 03:54:32;;;;;;;2.80;0.90;;;9.90;99.90;;;;;;7389705;19;20139;-75
2022/11/24 03:56:58;;;;;;;4.20;0.87;;;9.80;99.90;;;;;;7391446;19;20210;-77
2022/11/24 03:59:23;;;;;;;3.57;0.93;;;9.80;99.90;;;;;;7391294;19;20150;-76
2022/11/24 04:01:49;;;;;;;5.50;0.87;;;9.70;99.90;;;;;;7389922;19;20142;-76
2022/11/24 04:04:15;;;;;;;4.10;1.17;;;9.80;99.90;;;;;;7389653;19;20150;-75
2022/11/24 04:06:41;;;;;;;1.73;0.70;;;9.80;99.90;;;;;;7393160;19;20135;-75
2022/11/24 04:09:07;;;;;;;2.23;0.90;;;9.80;99.90;;;;;;7390642;19;20153;-75
2022/11/24 04:14:18;;;;;;;2.90;1.10;;;9.80;99.90;;;;;;7392061;19;20138;-76
2022/11/24 04:16:44;;;;;;;3.70;1.07;;;9.80;99.90;;;;;;7393392;19;20625;-75
2022/11/24 04:19:09;;;;;;;3.27;1.00;;;9.70;99.90;;;;;;7391524;19;20134;-76
2022/11/24 04:21:35;;;;;;;2.67;1.00;;;9.70;99.90;;;;;;7388572;19;20488;-76
2022/11/24 04:24:01;;;;;;;5.37;1.10;;;9.70;99.90;;;;;;7389998;19;20242;-75
2022/11/24 04:26:27;;;;;;;3.13;1.20;;;9.70;99.90;;;;;;7390478;19;20597;-75
2022/11/24 04:28:53;;;;;;;2.90;1.00;;;9.60;99.90;;;;;;7390956;19;20151;-76
2022/11/24 04:31:18;;;;;;;2.40;0.93;;;9.70;99.90;;;;;;7393131;19;20515;-76
2022/11/24 04:33:44;;;;;;;6.43;1.57;;;9.60;99.90;;;;;;7388069;19;20149;-75
2022/11/24 04:36:10;;;;;;;6.70;1.10;;;9.50;99.90;;;;;;7390473;19;20612;-76
2022/11/24 04:38:36;;;;;;;10.33;1.30;;;9.50;99.90;;;;;;7390626;19;20158;-75
2022/11/24 04:41:03;;;;;;;6.53;1.47;;;9.40;99.90;;;;;;7391766;19;20141;-75
2022/11/24 04:43:30;;;;;;;2.17;0.97;;;9.60;99.90;;;;;;7390029;19;20134;-75
2022/11/24 04:45:58;;;;;;;4.63;1.10;;;9.60;99.90;;;;;;7391296;19;20139;-75
2022/11/24 04:48:24;;;;;;;3.43;1.20;;;9.70;99.90;;;;;;7390073;19;20156;-76
2022/11/24 04:50:50;;;;;;;2.60;1.10;;;9.60;99.90;;;;;;7391406;19;20146;-76
2022/11/24 04:53:16;;;;;;;5.90;1.50;;;9.60;99.90;;;;;;7388831;19;20146;-76
2022/11/24 04:55:41;;;;;;;2.57;0.90;;;9.40;99.90;;;;;;7390677;19;20210;-75
2022/11/24 04:58:10;;;;;;;4.63;1.40;;;9.40;99.90;;;;;;7387809;19;20547;-76
2022/11/24 05:00:37;;;;;;;5.13;1.40;;;9.30;99.90;;;;;;7389794;19;20149;-77
2022/11/24 05:03:03;;;;;;;2.13;0.97;;;9.30;99.90;;;;;;7391805;19;20154;-75
2022/11/24 05:05:29;;;;;;;5.93;1.30;;;9.30;99.90;;;;;;7395464;19;20138;-76
2022/11/24 05:07:54;;;;;;;7.07;1.43;;;9.00;99.90;;;;;;7396373;19;20183;-75
2022/11/24 05:10:36;;;;;;;2.37;1.10;;;9.20;99.90;;;;;;7397848;19;20495;-76
2022/11/24 05:13:20;;;;;;;5.73;1.20;;;9.30;99.90;;;;;;7394876;19;20159;-76
2022/11/24 05:15:47;;;;;;;5.80;1.50;;;9.50;99.90;;;;;;7396107;19;20154;-75
2022/11/24 05:18:15;;;;;;;9.13;1.40;;;9.40;99.90;;;;;;7397537;19;20173;-75
2022/11/24 05:20:43;;;;;;;5.10;1.57;;;9.40;99.90;;;;;;7396602;19;20150;-76
2022/11/24 05:23:09;;;;;;;4.20;1.33;;;9.60;99.90;;;;;;7395908;19;20151;-76
2022/11/24 05:25:35;;;;;;;3.63;1.30;;;9.70;99.90;;;;;;7397327;19;20206;-75
2022/11/24 05:28:03;;;;;;;6.93;1.33;;;9.70;99.90;;;;;;7398917;19;20155;-76
2022/11/24 05:30:30;;;;;;;5.77;1.20;;;9.80;99.90;;;;;;7397601;19;20157;-75
2022/11/24 05:32:56;;;;;;;4.23;1.40;;;9.80;99.90;;;;;;7397422;19;20142;-76
2022/11/24 05:35:22;;;;;;;5.23;1.30;;;9.50;99.90;;;;;;7395877;19;20134;-76
2022/11/24 05:37:48;;;;;;;5.70;1.33;;;9.60;99.90;;;;;;7397589;19;20171;-76
2022/11/24 05:40:15;;;;;;;4.63;1.70;;;9.60;99.90;;;;;;7398316;19;20139;-76
2022/11/24 05:42:40;;;;;;;4.97;1.20;;;9.80;99.90;;;;;;7398720;19;20160;-76
2022/11/24 05:45:12;;;;;;;4.23;1.27;;;9.70;99.90;;;;;;7396175;19;20126;-75
2022/11/24 05:47:40;;;;;;;5.10;1.23;;;9.80;99.90;;;;;;7398662;19;20485;-75
2022/11/24 05:50:07;;;;;;;5.37;1.17;;;9.80;99.90;;;;;;7398370;19;20231;-75
2022/11/24 05:52:33;;;;;;;5.77;1.20;;;9.70;99.90;;;;;;7394233;19;20139;-75
2022/11/24 05:54:59;;;;;;;2.57;1.10;;;9.70;99.90;;;;;;7394571;19;20150;-75
2022/11/24 05:57:24;;;;;;;7.10;1.50;;;9.80;99.90;;;;;;7393793;19;20147;-75
2022/11/24 05:59:50;;;;;;;3.93;1.03;;;9.60;99.90;;;;;;7393824;19;20134;-76
2022/11/24 06:02:16;;;;;;;6.83;1.30;;;9.50;99.90;;;;;;7395362;19;20135;-75
2022/11/24 06:04:42;;;;;;;9.23;1.53;;;9.60;99.90;;;;;;7394542;19;20449;-76
2022/11/24 06:07:10;;;;;;;3.23;1.20;;;9.60;99.90;;;;;;7394361;19;20131;-75
2022/11/24 06:09:37;;;;;;;6.10;1.30;;;9.50;99.90;;;;;;7394446;19;20234;-75
2022/11/24 06:12:04;;;;;;;4.07;1.50;;;9.50;99.90;;;;;;7393571;19;20149;-74
2022/11/24 06:14:30;;;;;;;5.50;1.73;;;9.40;99.90;;;;;;7391040;19;20577;-76
2022/11/24 06:16:57;;;;;;;4.13;1.43;;;9.60;99.90;;;;;;7393901;19;20126;-75
2022/11/24 06:19:23;;;;;;;5.60;1.50;;;9.50;99.90;;;;;;7395485;19;20450;-74
2022/11/24 06:21:49;;;;;;;4.27;1.33;;;9.50;99.90;;;;;;7400013;19;20223;-75
2022/11/24 06:24:14;;;;;;;2.83;1.40;;;9.40;99.90;;;;;;7393670;19;20585;-75
2022/11/24 06:26:40;;;;;;;7.43;1.70;;;9.30;99.90;;;;;;7393877;19;20131;-75
2022/11/24 06:29:07;;;;;;;5.77;1.10;;;9.40;99.90;;;;;;7396362;19;20169;-75
2022/11/24 06:31:33;;;;;;;10.80;1.40;;;9.60;99.90;;;;;;7393736;19;20134;-76
2022/11/24 06:33:59;;;;;;;5.03;1.40;;;9.70;99.90;;;;;;7390541;19;20143;-75
2022/11/24 06:36:26;;;;;;;4.57;1.20;;;9.90;99.90;;;;;;7390532;19;20621;-76
2022/11/24 06:38:52;;;;;;;5.70;1.27;;;10.20;99.90;;;;;;7394649;19;20137;-76
2022/11/24 06:41:18;;;;;;;3.83;1.23;;;10.10;99.90;;;;;;7394979;19;20136;-77
2022/11/24 06:43:45;;;;;;;6.37;1.40;;;10.10;99.90;;;;;;7394585;19;20145;-77
2022/11/24 06:46:11;;;;;;;6.17;1.60;;;10.00;99.90;;;;;;7395164;19;20206;-77
2022/11/24 06:48:37;;;;;;;5.87;1.40;;;10.10;99.90;;;;;;7392216;19;20155;-77
2022/11/24 06:51:06;;;;;;;4.53;1.30;;;10.10;99.90;;;;;;7394402;19;20194;-77
2022/11/24 06:53:37;;;;;;;6.33;1.50;;;9.90;99.90;;;;;;7394208;19;20126;-80
2022/11/24 06:56:08;;;;;;;4.47;1.53;;;9.80;99.90;;;;;;7396162;19;20145;-79
2022/11/24 06:58:38;;;;;;;5.40;1.47;;;9.90;99.90;;;;;;7392738;19;20527;-78
2022/11/24 07:01:04;;;;;;;3.63;1.00;;;9.80;99.90;;;;;;7393000;19;20178;-78
2022/11/24 07:03:30;;;;;;;5.53;1.30;;;9.90;99.90;;;;;;7393914;19;20147;-78
2022/11/24 07:05:56;;;;;;;6.93;1.73;;;10.00;99.90;;;;;;7393347;19;20131;-78
2022/11/24 07:08:22;;;;;;;7.83;1.47;;;10.00;99.90;;;;;;7395753;19;20149;-78
2022/11/24 07:10:48;;;;;;;6.57;1.60;;;10.10;99.90;;;;;;7392364;19;20148;-78
2022/11/24 07:13:15;;;;;;;6.50;1.23;;;10.20;99.90;;;;;;7392372;19;20868;-78
2022/11/24 07:15:40;;;;;;;7.73;1.53;;;10.20;99.90;;;;;;7392954;19;20161;-79
2022/11/24 07:18:06;;;;;;;2.93;1.33;;;10.20;99.90;;;;;;7394656;19;20204;-78
2022/11/24 07:20:32;;;;;;;5.27;2.13;;;9.90;99.90;;;;;;7392662;19;20210;-78
2022/11/24 07:22:58;;;;;;;4.30;2.03;;;9.90;99.90;;;;;;7395145;19;20464;-79
2022/11/24 07:25:27;;;;;;;8.87;1.90;;;10.00;99.90;;;;;;7395135;19;20146;-78
2022/11/24 07:27:57;;;;;;;5.57;1.50;;;10.00;99.90;;;;;;7393671;19;20616;-79
2022/11/24 07:30:24;;;;;;;7.17;1.60;;;10.10;99.90;;;;;;7393616;19;20478;-77
2022/11/24 07:32:50;;;;;;;8.23;2.20;;;10.10;99.90;;;;;;7394508;19;20138;-77
2022/11/24 07:35:16;;;;;;;9.00;1.93;;;10.30;99.90;;;;;;7393776;19;20129;-78
2022/11/24 07:37:43;;;;;;;8.60;2.03;;;10.10;99.90;;;;;;7393516;19;20707;-77
2022/11/24 07:40:09;;;;;;;4.10;1.30;;;10.10;99.90;;;;;;7394394;19;20169;-78
2022/11/24 07:42:35;;;;;;;7.10;2.57;;;10.20;99.90;;;;;;7393628;19;20145;-78
2022/11/24 07:45:01;;;;;;;5.03;1.83;;;10.10;99.90;;;;;;7393065;19;20217;-78
2022/11/24 07:47:27;;;;;;;6.40;1.83;;;10.10;99.90;;;;;;7394869;19;20487;-78
2022/11/24 07:49:53;;;;;;;10.47;1.90;;;10.10;99.90;;;;;;7392956;19;20150;-78
2022/11/24 07:52:19;;;;;;;10.30;2.17;;;10.10;99.90;;;;;;7393402;19;20137;-77
2022/11/24 07:54:44;;;;;;;5.63;1.53;;;10.10;99.90;;;;;;7392674;19;20134;-78
2022/11/24 07:57:11;;;;;;;11.13;2.07;;;10.00;99.90;;;;;;7392698;19;20149;-78
2022/11/24 07:59:38;;;;;;;5.43;1.83;;;10.00;99.90;;;;;;7393626;19;20142;-78
2022/11/24 08:02:04;;;;;;;8.37;2.60;;;10.00;99.90;;;;;;7388601;19;20131;-77
2022/11/24 08:04:29;;;;;;;5.33;1.70;;;9.70;99.90;;;;;;7389538;19;20143;-77
2022/11/24 08:06:55;;;;;;;6.97;1.97;;;9.40;99.90;;;;;;7393020;19;20606;-79
2022/11/24 08:09:24;;;;;;;9.87;1.80;;;9.70;99.90;;;;;;7393832;19;20143;-78
2022/11/24 08:11:49;;;;;;;10.40;2.23;;;9.80;99.90;;;;;;7390885;19;20166;-79
2022/11/24 08:14:15;;;;;;;6.67;1.57;;;9.80;99.90;;;;;;7391349;19;20142;-78
2022/11/24 08:16:41;;;;;;;10.63;1.70;;;9.90;99.90;;;;;;7392186;19;20142;-79
2022/11/24 08:19:09;;;;;;;4.77;1.20;;;9.60;99.90;;;;;;7392988;19;20180;-79
2022/11/24 08:21:38;;;;;;;9.17;1.53;;;9.80;99.90;;;;;;7389098;19;20492;-79
2022/11/24 08:24:04;;;;;;;3.57;1.60;;;9.70;99.90;;;;;;7389473;19;20625;-79
2022/11/24 08:26:30;;;;;;;10.67;1.70;;;9.70;99.90;;;;;;7391027;19;20159;-78
2022/11/24 08:28:57;;;;;;;5.47;1.37;;;9.70;99.90;;;;;;7390827;19;20127;-78
2022/11/24 08:31:26;;;;;;;3.63;1.60;;;9.80;99.90;;;;;;7388283;19;20165;-78
2022/11/24 08:33:53;;;;;;;3.43;1.23;;;9.80;99.90;;;;;;7387091;19;20631;-79
2022/11/24 08:36:19;;;;;;;5.17;1.67;;;9.90;99.90;;;;;;7406267;19;20131;-79
2022/11/24 08:38:46;;;;;;;5.00;1.57;;;9.80;99.90;;;;;;7394286;19;20139;-78
2022/11/24 08:41:16;;;;;;;7.07;2.07;;;9.90;99.90;;;;;;7397313;19;20427;-78
2022/11/24 08:43:42;;;;;;;4.20;2.33;;;10.00;99.90;;;;;;7398521;19;20513;-78
2022/11/24 08:46:11;;;;;;;3.90;1.60;;;9.80;99.90;;;;;;7398081;19;20134;-80
2022/11/24 08:48:38;;;;;;;7.80;1.53;;;10.00;99.90;;;;;;7398543;19;20194;-79
2022/11/24 08:51:11;;;;;;;5.97;1.57;;;10.00;99.90;;;;;;7396674;19;20190;-79
2022/11/24 08:53:39;;;;;;;3.20;1.70;;;9.80;99.90;;;;;;7394259;19;20202;-79
2022/11/24 08:56:06;;;;;;;3.33;1.33;;;10.10;99.90;;;;;;7397246;19;20495;-79
2022/11/24 08:58:32;;;;;;;6.90;3.20;;;10.00;99.90;;;;;;7394673;19;20150;-79
2022/11/24 09:01:11;;;;;;;2.67;1.20;;;9.80;99.90;;;;;;7397132;19;20143;-79
2022/11/24 09:03:38;;;;;;;6.40;1.70;;;9.90;99.90;;;;;;7398575;19;20139;-78
2022/11/24 09:06:06;;;;;;;2.40;0.90;;;9.80;99.90;;;;;;7397534;19;20632;-77
2022/11/24 09:08:32;;;;;;;4.13;1.90;;;9.90;99.90;;;;;;7396600;19;20134;-79
2022/11/24 09:11:00;;;;;;;3.33;1.30;;;9.90;99.90;;;;;;7398242;19;20608;-80
2022/11/24 09:13:26;;;;;;;1.70;0.90;;;10.00;99.90;;;;;;7394981;19;20660;-79
2022/11/24 09:15:51;;;;;;;2.57;1.30;;;10.20;99.90;;;;;;7395849;19;20154;-79
2022/11/24 09:18:18;;;;;;;2.53;1.07;;;10.20;99.90;;;;;;7397067;19;20139;-78
2022/11/24 09:20:44;;;;;;;4.83;1.40;;;10.10;99.90;;;;;;7404285;19;20585;-79
2022/11/24 09:23:10;;;;;;;1.47;1.20;;;10.00;99.90;;;;;;7396463;19;20213;-77
2022/11/24 09:25:37;;;;;;;4.10;2.17;;;10.10;99.90;;;;;;7395388;19;20257;-79
2022/11/24 09:28:03;;;;;;;1.67;0.80;;;10.00;99.90;;;;;;7398238;19;20581;-79
2022/11/24 09:30:29;;;;;;;1.70;1.10;;;10.10;99.90;;;;;;7394776;19;20512;-78
2022/11/24 09:32:56;;;;;;;3.80;1.20;;;10.20;99.90;;;;;;7395362;19;20141;-78
2022/11/24 09:35:22;;;;;;;4.23;1.03;;;10.40;99.90;;;;;;7395816;19;20169;-79
2022/11/24 09:37:48;;;;;;;3.60;1.10;;;10.20;99.90;;;;;;7401432;19;20146;-79
2022/11/24 09:40:16;;;;;;;2.07;1.30;;;10.50;99.90;;;;;;7394977;19;20150;-80
2022/11/24 09:43:36;;;;;;;3.07;1.33;;;10.40;99.90;;;;;;7397117;19;20211;-79
2022/11/24 09:46:39;;;;;;;3.03;1.20;;;10.30;99.90;;;;;;7390964;19;20693;-79
2022/11/24 09:49:14;;;;;;;1.80;0.90;;;10.40;99.90;;;;;;7403336;19;20141;-78
2022/11/24 09:51:43;;;;;;;2.20;1.23;;;10.40;99.90;;;;;;7394555;19;20731;-79
2022/11/24 09:54:16;;;;;;;1.57;0.60;;;10.50;99.90;;;;;;7392318;19;20139;-78
2022/11/24 09:56:44;;;;;;;2.10;1.20;;;10.50;99.90;;;;;;7393753;19;20514;-79
2022/11/24 09:59:15;;;;;;;2.47;1.10;;;10.60;99.90;;;;;;7394275;19;20155;-80
2022/11/24 10:01:42;;;;;;;2.53;0.90;;;10.30;99.90;;;;;;7394879;19;20161;-79
2022/11/24 10:04:38;;;;;;;1.77;0.77;;;10.50;99.90;;;;;;7392776;19;20153;-78
2022/11/24 10:07:06;;;;;;;1.77;1.37;;;10.40;99.90;;;;;;7392644;19;20158;-79
2022/11/24 10:09:38;;;;;;;2.83;1.13;;;10.30;99.90;;;;;;7396051;19;20142;-79
2022/11/24 10:12:22;;;;;;;1.87;0.90;;;10.30;99.90;;;;;;7393457;19;20149;-79
2022/11/24 10:15:13;;;;;;;4.33;1.17;;;10.20;99.90;;;;;;7394662;19;20138;-79
2022/11/24 10:17:48;;;;;;;1.33;0.93;;;10.10;99.90;;;;;;7394401;19;20585;-78
2022/11/24 10:20:26;;;;;;;2.43;1.27;;;10.30;99.90;;;;;;7395279;19;20141;-79
2022/11/24 10:23:21;;;;;;;3.00;1.40;;;10.40;99.90;;;;;;7394109;19;20130;-80
2022/11/24 10:25:46;;;;;;;1.97;0.93;;;10.70;99.90;;;;;;7391648;19;20154;-78
2022/11/24 10:28:14;;;;;;;1.50;0.40;;;11.00;99.90;;;;;;7393859;19;20751;-77
2022/11/24 10:30:41;;;;;;;2.90;0.60;;;11.00;99.90;;;;;;7392721;19;20146;-79
2022/11/24 10:33:19;;;;;;;1.20;0.70;;;10.60;99.90;;;;;;7392700;19;20157;-77
2022/11/24 10:35:55;;;;;;;1.20;0.90;;;10.50;99.90;;;;;;7403003;19;20145;-77
2022/11/24 10:38:44;;;;;;;6.87;4.50;;;10.40;99.90;;;;;;7393436;19;20146;-78
2022/11/24 10:41:36;;;;;;;3.37;1.63;;;10.40;99.90;;;;;;7394674;19;20194;-79
2022/11/24 10:44:01;;;;;;;2.03;0.80;;;10.60;99.90;;;;;;7391250;19;20151;-78
2022/11/24 10:46:28;;;;;;;2.10;0.50;;;10.80;99.90;;;;;;7393316;19;20135;-78
2022/11/24 10:49:02;;;;;;;1.80;0.70;;;10.60;99.90;;;;;;7392298;19;20139;-78
2022/11/24 10:51:47;;;;;;;7.13;3.77;;;10.70;99.90;;;;;;7391050;19;20134;-78
2022/11/24 10:54:19;;;;;;;3.03;1.90;;;11.00;99.90;;;;;;7389855;19;20166;-79
2022/11/24 10:56:47;;;;;;;2.13;1.40;;;11.00;99.90;;;;;;7394463;19;20142;-79
2022/11/24 10:59:35;;;;;;;1.20;0.70;;;11.10;99.90;;;;;;7393015;19;20163;-78
2022/11/24 11:02:21;;;;;;;1.17;0.80;;;11.00;99.90;;;;;;7391679;19;20637;-78
2022/11/24 11:04:47;;;;;;;1.00;0.73;;;10.70;99.90;;;;;;7394745;19;20149;-79
2022/11/24 11:07:18;;;;;;;1.33;0.80;;;10.80;99.90;;;;;;7390943;19;20142;-79
2022/11/24 11:09:45;;;;;;;6.30;4.50;;;10.70;99.90;;;;;;7393508;19;20139;-79
2022/11/24 11:12:29;;;;;;;4.90;2.63;;;10.60;99.90;;;;;;7392778;19;20574;-79
2022/11/24 11:14:55;;;;;;;1.73;1.30;;;11.00;99.90;;;;;;7393095;19;20138;-79
2022/11/24 11:17:37;;;;;;;2.43;0.87;;;11.00;99.90;;;;;;7394425;19;20130;-79
2022/11/24 11:20:15;;;;;;;1.10;0.80;;;11.20;99.90;;;;;;7393428;19;20143;-79
2022/11/24 11:22:44;;;;;;;1.63;0.97;;;11.10;99.90;;;;;;7393009;19;20163;-78
2022/11/24 11:25:09;;;;;;;2.80;1.20;;;11.20;99.90;;;;;;7389555;19;20627;-79
2022/11/24 11:27:39;;;;;;;1.07;0.80;;;11.30;99.90;;;;;;7393301;19;20145;-78
2022/11/24 11:30:26;;;;;;;1.27;0.77;;;11.40;99.90;;;;;;7390870;19;20149;-79
2022/11/24 11:32:57;;;;;;;2.93;0.70;;;11.50;99.90;;;;;;7391508;19;20150;-78
2022/11/24 11:35:28;;;;;;;0.87;0.87;;;11.60;99.90;;;;;;7391239;19;20138;-78
2022/11/24 11:38:00;;;;;;;2.33;0.90;;;11.70;99.90;;;;;;7390208;19;20138;-79
2022/11/24 11:40:29;;;;;;;1.10;0.70;;;11.40;99.90;;;;;;7392949;19;20146;-78
2022/11/24 11:43:04;;;;;;;2.27;0.97;;;11.60;99.90;;;;;;7389196;19;20127;-78
2022/11/24 11:45:42;;;;;;;2.77;1.10;;;11.60;99.90;;;;;;7390873;19;20472;-79
2022/11/24 11:48:42;;;;;;;1.43;0.80;;;11.60;99.90;;;;;;7390907;19;20160;-79
2022/11/24 11:51:45;;;;;;;1.87;0.90;;;11.80;99.90;;;;;;7389987;19;20146;-77
2022/11/24 11:54:38;;;;;;;1.50;1.10;;;11.50;99.90;;;;;;7387835;19;20169;-78
2022/11/24 11:57:10;;;;;;;1.77;0.97;;;11.60;99.90;;;;;;7391978;19;20161;-76
2022/11/24 11:59:54;;;;;;;2.77;1.00;;;11.60;99.90;;;;;;7403229;19;20135;-76
2022/11/24 12:02:19;;;;;;;1.10;0.80;;;11.60;99.90;;;;;;7392490;19;20138;-78
2022/11/24 12:05:00;;;;;;;1.97;0.70;;;11.50;99.90;;;;;;7389564;19;20167;-77
2022/11/24 12:07:37;;;;;;;3.30;1.20;;;11.40;99.90;;;;;;7391471;19;20138;-78
2022/11/24 12:10:24;;;;;;;1.67;0.80;;;11.20;99.90;;;;;;7392693;19;20134;-78
2022/11/24 12:13:13;;;;;;;2.70;1.20;;;10.90;99.90;;;;;;7393594;19;20122;-79
2022/11/24 12:15:46;;;;;;;1.73;1.00;;;11.00;99.90;;;;;;7399477;19;20139;-78
2022/11/24 12:18:41;;;;;;;1.57;0.93;;;11.10;99.90;;;;;;7397461;19;20158;-77
2022/11/24 12:21:51;;;;;;;4.40;1.37;;;11.30;99.90;;;;;;7396654;19;20607;-77
2022/11/24 12:24:41;;;;;;;3.30;1.17;;;11.60;99.90;;;;;;7394525;19;20145;-78
2022/11/24 12:27:46;;;;;;;3.80;1.43;;;11.60;99.90;;;;;;7394709;19;20150;-78
2022/11/24 12:30:15;;;;;;;3.37;1.20;;;11.60;99.90;;;;;;7396995;19;20149;-78
2022/11/24 12:32:59;;;;;;;2.72;0.82;;;11.50;99.90;;;;;;7397949;19;20594;-78
2022/11/24 12:35:42;;;;;;;5.60;1.53;;;11.30;99.90;;;;;;7396480;19;20155;-79
2022/11/24 12:38:50;;;;;;;4.27;1.37;;;11.50;99.90;;;;;;7398482;19;20167;-77
2022/11/24 12:41:34;;;;;;;3.77;1.00;;;11.80;99.90;;;;;;7396982;19;20150;-79
2022/11/24 12:44:01;;;;;;;3.70;1.13;;;11.70;99.90;;;;;;7398822;19;20139;-78
2022/11/24 12:46:52;;;;;;;2.27;1.50;;;11.80;99.90;;;;;;7396574;19;20484;-79
2022/11/24 12:49:26;;;;;;;4.50;1.77;;;11.90;99.90;;;;;;7396923;19;20150;-79
2022/11/24 12:52:00;;;;;;;3.23;1.07;;;12.00;99.90;;;;;;7397373;19;20161;-78
2022/11/24 12:54:32;;;;;;;3.53;1.20;;;11.90;99.90;;;;;;7392395;19;20150;-78
2022/11/24 12:57:24;;;;;;;3.57;1.47;;;11.80;99.90;;;;;;7395458;19;20581;-78
2022/11/24 13:00:15;;;;;;;6.60;1.20;;;11.90;99.90;;;;;;7395891;19;20508;-78
2022/11/24 13:03:08;;;;;;;4.17;1.80;;;11.80;99.90;;;;;;7398188;19;20211;-79
2022/11/24 13:05:47;;;;;;;2.25;1.20;;;11.60;99.90;;;;;;7396581;19;20134;-78
2022/11/24 13:08:14;;;;;;;3.33;0.80;;;11.70;99.90;;;;;;7396506;19;20743;-77
2022/11/24 13:10:40;;;;;;;3.90;1.10;;;11.80;99.90;;;;;;7397060;19;20160;-78